Time;durP1;ratioP1;P1;durP2;ratioP2;P2;SDS_P1;SDS_P2;PMS_P1;PMS_P2;Temp;Humidity;BMP_temperature;BMP_pressure;BME280_temperature;BME280_humidity;BME280_pressure;Samples;Min_cycle;Max_cycle;Signal;HPM_P1;HPM_P2
2023/05/24 00:01:37;;;;;;;15.77;7.72;;;17.30;95.00;;;;;;5116879;28;20117;-90
2023/05/24 00:04:03;;;;;;;9.10;6.68;;;17.30;94.60;;;;;;5103839;28;20023;-87
2023/05/24 00:06:29;;;;;;;11.43;7.50;;;17.30;94.40;;;;;;5100188;28;20023;-88
2023/05/24 00:08:55;;;;;;;13.50;7.45;;;17.30;94.30;;;;;;5117774;28;20081;-88
2023/05/24 00:11:22;;;;;;;12.20;6.57;;;17.30;94.20;;;;;;5117407;28;20019;-87
2023/05/24 00:13:48;;;;;;;8.98;7.00;;;17.30;94.10;;;;;;5101782;28;20010;-86
2023/05/24 00:16:15;;;;;;;9.18;7.05;;;17.30;94.00;;;;;;5111430;28;20039;-87
2023/05/24 00:18:45;;;;;;;13.13;7.60;;;17.20;94.30;;;;;;5101393;28;20023;-87
2023/05/24 00:21:12;;;;;;;14.02;8.20;;;17.00;94.80;;;;;;5117400;28;20023;-88
2023/05/24 00:23:40;;;;;;;11.48;7.55;;;16.80;95.30;;;;;;5104483;28;20045;-86
2023/05/24 00:26:09;;;;;;;13.73;8.32;;;16.70;95.50;;;;;;5134221;28;20039;-86
2023/05/24 00:28:35;;;;;;;12.70;9.18;;;16.60;96.10;;;;;;5136748;27;20033;-86
2023/05/24 00:31:01;;;;;;;15.73;9.57;;;16.50;97.00;;;;;;5126745;28;20044;-87
2023/05/24 00:33:28;;;;;;;13.52;9.23;;;16.50;97.20;;;;;;5096124;28;20030;-88
2023/05/24 00:35:57;;;;;;;18.52;10.23;;;16.50;97.60;;;;;;5103288;28;20035;-89
2023/05/24 00:38:24;;;;;;;12.30;8.85;;;16.40;97.60;;;;;;5110188;27;20050;-89
2023/05/24 00:40:50;;;;;;;11.02;9.13;;;16.30;97.50;;;;;;5147822;27;20075;-85
2023/05/24 00:43:16;;;;;;;11.55;9.65;;;16.30;97.90;;;;;;5129535;27;20586;-88
2023/05/24 00:45:42;;;;;;;11.30;8.63;;;16.30;98.30;;;;;;5110081;27;20072;-88
2023/05/24 00:48:09;;;;;;;15.80;8.77;;;16.40;98.10;;;;;;5126517;27;20020;-87
2023/05/24 00:50:38;;;;;;;18.60;11.40;;;16.40;97.80;;;;;;5121705;27;20028;-86
2023/05/24 00:53:05;;;;;;;11.02;9.93;;;16.40;98.30;;;;;;5098045;28;20026;-86
2023/05/24 00:55:35;;;;;;;17.98;11.05;;;16.40;98.70;;;;;;5119647;27;20042;-87
2023/05/24 00:58:01;;;;;;;17.63;10.68;;;16.50;99.20;;;;;;5126551;27;20475;-88
2023/05/24 01:00:28;;;;;;;10.65;8.57;;;16.50;99.40;;;;;;5105004;28;20023;-86
2023/05/24 01:02:54;;;;;;;14.35;10.43;;;16.50;98.90;;;;;;5105548;28;20019;-84
2023/05/24 01:05:22;;;;;;;14.23;9.82;;;16.50;98.90;;;;;;5102709;28;20446;-86
2023/05/24 01:08:16;;;;;;;13.80;10.15;;;16.60;99.30;;;;;;5117139;27;20015;-85
2023/05/24 01:11:19;;;;;;;16.15;10.32;;;16.60;99.10;;;;;;5135698;27;20102;-88
2023/05/24 01:14:13;;;;;;;13.98;8.18;;;16.60;99.30;;;;;;5086677;27;20027;-87
2023/05/24 01:16:52;;;;;;;10.05;8.30;;;16.70;98.70;;;;;;5144619;27;20074;-85
2023/05/24 01:19:27;;;;;;;12.90;8.98;;;16.70;98.20;;;;;;5112235;28;21860;-86
2023/05/24 01:22:10;;;;;;;15.02;8.57;;;16.80;98.20;;;;;;5114891;28;20027;-86
2023/05/24 01:24:54;;;;;;;14.88;9.35;;;16.80;98.20;;;;;;5110566;27;20042;-87
2023/05/24 01:27:22;;;;;;;11.00;8.60;;;16.80;97.70;;;;;;5137120;27;20101;-88
2023/05/24 01:29:52;;;;;;;;;;;16.80;97.60;;;;;;5100459;28;20049;-87
2023/05/24 01:32:21;;;;;;;10.85;8.25;;;16.80;97.50;;;;;;5110076;27;20402;-87
2023/05/24 01:34:47;;;;;;;15.30;9.05;;;16.80;97.70;;;;;;5110518;27;20034;-87
2023/05/24 01:37:13;;;;;;;13.10;7.57;;;16.80;97.60;;;;;;5145094;27;20054;-86
2023/05/24 01:39:39;;;;;;;14.82;8.95;;;16.80;96.80;;;;;;5136017;27;20030;-87
2023/05/24 01:42:31;;;;;;;10.13;7.10;;;16.90;96.40;;;;;;5136343;27;20111;-87
2023/05/24 01:45:18;;;;;;;16.75;8.52;;;16.90;95.90;;;;;;5092664;27;20054;-86
2023/05/24 01:48:17;;;;;;;12.13;8.13;;;17.00;95.70;;;;;;5133964;27;20127;-87
2023/05/24 01:50:51;;;;;;;13.73;8.20;;;17.00;95.60;;;;;;5098606;27;20035;-87
2023/05/24 01:53:22;;;;;;;12.02;7.07;;;17.00;95.40;;;;;;5140512;27;20011;-86
2023/05/24 01:55:52;;;;;;;13.20;8.15;;;17.10;95.10;;;;;;5149204;27;20051;-87
2023/05/24 01:58:21;;;;;;;16.15;8.45;;;17.00;95.10;;;;;;5117597;27;20023;-87
2023/05/24 02:00:47;;;;;;;11.43;7.78;;;17.00;95.50;;;;;;5123827;27;20023;-87
2023/05/24 02:03:14;;;;;;;10.52;8.30;;;17.10;95.20;;;;;;5104320;28;20049;-87
2023/05/24 02:05:40;;;;;;;11.60;6.95;;;17.10;94.90;;;;;;5112001;28;20027;-87
2023/05/24 02:08:07;;;;;;;13.40;7.22;;;17.20;94.70;;;;;;5100658;28;20081;-87
2023/05/24 02:10:33;;;;;;;10.23;7.43;;;17.20;94.60;;;;;;5116784;27;20019;-88
2023/05/24 02:12:59;;;;;;;13.45;7.60;;;17.20;94.50;;;;;;5133868;27;20452;-86
2023/05/24 02:15:29;;;;;;;12.65;7.32;;;17.20;94.10;;;;;;5115525;27;20074;-86
2023/05/24 02:17:55;;;;;;;9.55;7.13;;;17.20;94.20;;;;;;5118674;28;20372;-85
2023/05/24 02:20:24;;;;;;;10.35;7.03;;;17.20;94.00;;;;;;5116849;28;20028;-86
2023/05/24 02:22:50;;;;;;;11.02;7.88;;;17.20;94.00;;;;;;5108253;28;20536;-85
2023/05/24 02:25:16;;;;;;;12.15;8.07;;;17.20;94.00;;;;;;5107605;28;20056;-87
2023/05/24 02:27:45;;;;;;;14.52;7.90;;;17.20;93.90;;;;;;5110703;27;20015;-86
2023/05/24 02:30:12;;;;;;;13.85;7.90;;;17.20;94.00;;;;;;5137408;27;20032;-86
2023/05/24 02:32:38;;;;;;;10.83;8.10;;;17.30;94.00;;;;;;5158516;27;20015;-84
2023/05/24 02:35:04;;;;;;;9.48;7.72;;;17.30;94.00;;;;;;5157803;27;20342;-84
2023/05/24 02:37:30;;;;;;;11.13;8.73;;;17.30;94.00;;;;;;5144461;27;20488;-85
2023/05/24 02:39:56;;;;;;;13.60;8.35;;;17.30;94.00;;;;;;5135251;27;20068;-87
2023/05/24 02:42:22;;;;;;;12.13;7.80;;;17.30;93.90;;;;;;5158987;27;20027;-86
2023/05/24 02:44:51;;;;;;;12.00;8.30;;;17.30;93.90;;;;;;5157531;27;20115;-86
2023/05/24 02:47:18;;;;;;;12.90;7.95;;;17.30;93.80;;;;;;5147421;27;20027;-86
2023/05/24 02:49:44;;;;;;;10.95;7.18;;;17.30;93.80;;;;;;5128497;27;20407;-87
2023/05/24 02:52:12;;;;;;;8.65;7.43;;;17.30;93.70;;;;;;5135749;27;20031;-88
2023/05/24 02:54:38;;;;;;;9.20;6.88;;;17.30;93.80;;;;;;5113573;28;20128;-86
2023/05/24 02:57:05;;;;;;;10.13;6.78;;;17.30;93.60;;;;;;5129738;27;20047;-84
2023/05/24 02:59:32;;;;;;;14.05;8.10;;;17.30;93.70;;;;;;5129812;27;20090;-84
2023/05/24 03:01:58;;;;;;;9.85;6.90;;;17.30;93.70;;;;;;5127608;28;20024;-83
2023/05/24 03:04:24;;;;;;;12.32;7.05;;;17.40;93.70;;;;;;5112996;28;20043;-86
2023/05/24 03:06:50;;;;;;;7.68;6.90;;;17.40;93.90;;;;;;5124689;28;20465;-86
2023/05/24 03:09:17;;;;;;;11.13;7.15;;;17.40;93.60;;;;;;5131103;27;20084;-85
2023/05/24 03:11:43;;;;;;;11.85;7.38;;;17.40;93.70;;;;;;5128118;27;20030;-84
2023/05/24 03:14:09;;;;;;;10.55;7.65;;;17.40;93.70;;;;;;5143002;27;20048;-85
2023/05/24 03:16:36;;;;;;;14.30;7.60;;;17.40;93.80;;;;;;5123190;27;20357;-85
2023/05/24 03:19:02;;;;;;;16.70;8.70;;;17.40;93.80;;;;;;5128205;27;20159;-86
2023/05/24 03:21:28;;;;;;;10.75;7.45;;;17.40;93.80;;;;;;5111243;28;20110;-88
2023/05/24 03:23:54;;;;;;;12.45;7.35;;;17.50;93.70;;;;;;5116779;27;20051;-86
2023/05/24 03:26:22;;;;;;;14.38;7.78;;;17.50;93.60;;;;;;5119104;27;20084;-86
2023/05/24 03:28:50;;;;;;;;;;;17.60;93.50;;;;;;5103512;28;20114;-87
2023/05/24 03:31:16;;;;;;;10.52;7.18;;;17.60;93.50;;;;;;5104494;28;20257;-87
2023/05/24 03:33:42;;;;;;;9.85;6.82;;;17.60;93.60;;;;;;5113479;27;20015;-85
2023/05/24 03:36:08;;;;;;;13.50;7.45;;;17.80;93.10;;;;;;5143065;27;20079;-84
2023/05/24 03:38:34;;;;;;;9.35;7.22;;;17.80;92.80;;;;;;5116431;27;20040;-85
2023/05/24 03:41:00;;;;;;;15.63;9.82;;;17.90;93.00;;;;;;5143188;27;20027;-86
2023/05/24 03:43:25;;;;;;;16.10;10.98;;;18.00;92.90;;;;;;5120638;27;20043;-86
2023/05/24 03:45:51;;;;;;;14.93;8.77;;;18.10;92.40;;;;;;5108618;28;20045;-86
2023/05/24 03:48:19;;;;;;;18.85;10.85;;;18.10;92.10;;;;;;5124690;27;20496;-84
2023/05/24 03:50:46;;;;;;;15.18;8.75;;;18.10;92.30;;;;;;5109093;27;20552;-84
2023/05/24 03:53:12;;;;;;;10.43;8.07;;;18.20;92.10;;;;;;5134014;27;20503;-84
2023/05/24 03:55:38;;;;;;;14.30;7.85;;;18.20;92.00;;;;;;5139274;27;20460;-87
2023/05/24 03:58:03;;;;;;;12.10;9.35;;;18.20;92.10;;;;;;5149900;27;20162;-85
2023/05/24 04:00:31;;;;;;;12.60;9.40;;;18.20;91.90;;;;;;5151689;27;20027;-89
2023/05/24 04:02:57;;;;;;;15.98;10.77;;;18.20;91.90;;;;;;5133952;27;20045;-88
2023/05/24 04:05:28;;;;;;;16.85;12.05;;;18.20;91.90;;;;;;5132222;27;20029;-86
2023/05/24 04:07:55;;;;;;;17.27;10.70;;;18.10;92.20;;;;;;5133327;27;20076;-87
2023/05/24 04:10:21;;;;;;;14.05;9.45;;;18.10;92.00;;;;;;5124009;27;20464;-86
2023/05/24 04:12:47;;;;;;;14.97;9.60;;;18.10;92.00;;;;;;5104779;28;20023;-86
2023/05/24 04:15:16;;;;;;;16.15;10.88;;;18.00;92.10;;;;;;5117057;27;20037;-87
2023/05/24 04:17:42;;;;;;;21.90;13.43;;;18.00;91.90;;;;;;5120003;28;20019;-88
2023/05/24 04:20:09;;;;;;;18.70;10.93;;;18.00;91.90;;;;;;5133186;27;20035;-88
2023/05/24 04:22:35;;;;;;;25.13;14.23;;;18.00;92.10;;;;;;5108860;28;20043;-87
2023/05/24 04:25:02;;;;;;;18.13;10.82;;;18.00;92.30;;;;;;5102521;28;20036;-87
2023/05/24 04:27:29;;;;;;;13.88;8.52;;;17.90;92.70;;;;;;5130773;28;20076;-88
2023/05/24 04:29:55;;;;;;;18.42;9.10;;;17.90;93.00;;;;;;5122643;27;20031;-86
2023/05/24 04:32:22;;;;;;;21.90;11.88;;;18.00;92.70;;;;;;5144010;27;20026;-85
2023/05/24 04:34:49;;;;;;;16.20;9.68;;;18.00;92.40;;;;;;5102341;28;20057;-86
2023/05/24 04:37:18;;;;;;;18.77;11.40;;;18.00;92.30;;;;;;5109298;27;20030;-84
2023/05/24 04:39:44;;;;;;;18.05;10.45;;;18.20;92.30;;;;;;5123258;27;20034;-86
2023/05/24 04:42:13;;;;;;;12.07;8.70;;;18.40;91.90;;;;;;5134084;27;20075;-88
2023/05/24 04:44:43;;;;;;;15.38;9.05;;;18.60;91.40;;;;;;5141380;27;20059;-86
2023/05/24 04:47:09;;;;;;;10.63;8.55;;;18.80;91.60;;;;;;5137221;27;20016;-88
2023/05/24 04:49:35;;;;;;;13.45;8.57;;;19.30;91.10;;;;;;5124449;28;20102;-87
2023/05/24 04:52:01;;;;;;;11.77;7.97;;;19.60;90.30;;;;;;5127992;27;20059;-85
2023/05/24 04:54:27;;;;;;;10.88;8.45;;;19.80;89.80;;;;;;5132298;27;20014;-87
2023/05/24 04:56:53;;;;;;;13.65;10.27;;;20.00;88.80;;;;;;5134113;27;20015;-86
2023/05/24 04:59:19;;;;;;;12.18;8.73;;;20.30;87.50;;;;;;5143832;27;20023;-89
2023/05/24 05:01:45;;;;;;;13.40;8.90;;;20.80;86.90;;;;;;5126222;27;20034;-89
2023/05/24 05:04:10;;;;;;;15.45;8.50;;;21.50;83.70;;;;;;5119461;27;20476;-85
2023/05/24 05:06:39;;;;;;;13.50;9.02;;;22.20;80.20;;;;;;5136336;27;20027;-84
2023/05/24 05:09:11;;;;;;;15.93;8.23;;;22.90;78.50;;;;;;5120441;27;20050;-85
2023/05/24 05:11:37;;;;;;;13.68;9.07;;;23.80;76.10;;;;;;5136046;27;20066;-88
2023/05/24 05:14:03;;;;;;;18.63;9.63;;;24.60;72.70;;;;;;5116515;27;20139;-87
2023/05/24 05:16:30;;;;;;;16.85;8.10;;;24.80;71.10;;;;;;5135895;27;20056;-86
2023/05/24 05:18:56;;;;;;;13.27;8.80;;;24.40;68.90;;;;;;5115534;27;20088;-86
2023/05/24 05:21:22;;;;;;;16.95;11.27;;;24.10;69.70;;;;;;5122985;27;20011;-89
2023/05/24 05:23:50;;;;;;;14.57;8.95;;;23.90;70.80;;;;;;5109100;28;20066;-88
2023/05/24 05:26:15;;;;;;;14.13;8.32;;;23.90;69.70;;;;;;5118182;28;20019;-89
2023/05/24 05:28:41;;;;;;;16.23;7.97;;;23.80;69.50;;;;;;5108227;28;20031;-90
2023/05/24 05:31:07;;;;;;;10.70;8.40;;;23.60;69.50;;;;;;5086336;28;20027;-89
2023/05/24 05:33:33;;;;;;;18.05;8.70;;;23.60;69.40;;;;;;5104718;27;20114;-86
2023/05/24 05:35:59;;;;;;;11.50;8.68;;;23.50;69.90;;;;;;5124362;27;20168;-84
2023/05/24 05:38:25;;;;;;;16.80;7.97;;;23.40;70.60;;;;;;5082227;28;20020;-85
2023/05/24 05:40:51;;;;;;;16.35;8.77;;;23.40;71.40;;;;;;5124871;28;20492;-85
2023/05/24 05:43:18;;;;;;;13.70;7.60;;;23.50;70.80;;;;;;5124526;28;20054;-89
2023/05/24 05:45:44;;;;;;;11.13;8.60;;;23.50;70.10;;;;;;5132684;28;20181;-86
2023/05/24 05:48:10;;;;;;;18.05;8.30;;;23.60;70.40;;;;;;5130052;28;20031;-88
2023/05/24 05:50:37;;;;;;;11.43;7.93;;;23.90;70.50;;;;;;5134246;28;20032;-89
2023/05/24 05:53:03;;;;;;;17.05;7.80;;;25.00;68.20;;;;;;5117910;28;20028;-89
2023/05/24 05:55:29;;;;;;;16.10;7.60;;;26.50;64.80;;;;;;5113184;28;20081;-88
2023/05/24 05:57:55;;;;;;;12.13;6.85;;;27.50;61.70;;;;;;5125532;27;20431;-88
2023/05/24 06:00:30;;;;;;;10.20;7.95;;;27.80;59.90;;;;;;5136429;28;20039;-88
2023/05/24 06:03:01;;;;;;;12.80;8.00;;;27.40;58.40;;;;;;5101814;28;20082;-91
2023/05/24 06:05:28;;;;;;;15.65;10.82;;;27.10;59.10;;;;;;5099925;28;20280;-90
2023/05/24 06:07:54;;;;;;;18.30;11.73;;;26.60;59.90;;;;;;5109268;28;20083;-90
2023/05/24 06:10:20;;;;;;;13.68;9.13;;;26.00;60.90;;;;;;5088829;28;20105;-88
2023/05/24 06:12:46;;;;;;;13.35;7.72;;;25.30;63.00;;;;;;5115779;28;20127;-89
2023/05/24 06:15:12;;;;;;;18.13;9.07;;;24.80;63.60;;;;;;5126362;27;20095;-90
2023/05/24 06:17:41;;;;;;;19.42;10.77;;;24.40;65.30;;;;;;5082553;28;20030;-89
2023/05/24 06:20:14;;;;;;;14.15;8.82;;;24.00;65.90;;;;;;5142829;28;20083;-89
2023/05/24 06:22:41;;;;;;;10.30;7.97;;;23.70;66.90;;;;;;5116411;28;20012;-89
2023/05/24 06:25:09;;;;;;;12.85;8.93;;;23.20;68.20;;;;;;5104737;28;20024;-90
2023/05/24 06:27:35;;;;;;;16.95;7.68;;;22.90;70.40;;;;;;5125276;28;20020;-90
2023/05/24 06:30:01;;;;;;;17.27;8.80;;;22.80;70.40;;;;;;5122152;28;20032;-88
2023/05/24 06:32:26;;;;;;;13.68;7.65;;;22.60;70.50;;;;;;5104384;28;20492;-88
2023/05/24 06:34:52;;;;;;;12.57;7.65;;;22.50;70.50;;;;;;5127420;28;20082;-91
2023/05/24 06:37:23;;;;;;;18.45;9.02;;;22.30;71.30;;;;;;5132704;28;20503;-87
2023/05/24 06:39:49;;;;;;;11.45;7.00;;;22.40;70.90;;;;;;5114518;28;20065;-92
2023/05/24 06:42:15;;;;;;;13.55;7.00;;;22.60;71.10;;;;;;5122439;28;20019;-89
2023/05/24 06:44:41;;;;;;;23.58;9.00;;;23.10;70.90;;;;;;5119965;28;20047;-89
2023/05/24 06:47:08;;;;;;;15.73;7.68;;;23.90;69.30;;;;;;5104173;28;20036;-89
2023/05/24 06:49:34;;;;;;;12.02;8.02;;;24.70;66.40;;;;;;5129882;28;20079;-90
2023/05/24 06:52:00;;;;;;;18.70;7.95;;;25.20;64.70;;;;;;5153500;28;20023;-89
2023/05/24 06:54:26;;;;;;;13.35;8.50;;;25.10;65.00;;;;;;5115713;28;20103;-88
2023/05/24 06:56:52;;;;;;;14.25;8.30;;;25.10;64.80;;;;;;5123765;28;20369;-89
2023/05/24 06:59:19;;;;;;;11.30;6.90;;;25.20;64.20;;;;;;5121586;28;20123;-89
2023/05/24 07:01:47;;;;;;;12.38;8.10;;;25.20;62.80;;;;;;5121128;28;20472;-90
2023/05/24 07:04:13;;;;;;;14.15;7.75;;;24.60;63.40;;;;;;5113043;28;20027;-88
2023/05/24 07:06:38;;;;;;;12.52;6.93;;;24.30;64.60;;;;;;5113161;28;20023;-89
2023/05/24 07:09:04;;;;;;;13.65;8.75;;;24.30;65.60;;;;;;5119717;28;20027;-89
2023/05/24 07:11:31;;;;;;;15.10;8.10;;;24.80;65.40;;;;;;5114861;27;20384;-91
2023/05/24 07:13:57;;;;;;;13.95;8.80;;;25.30;63.80;;;;;;5118238;28;20031;-91
2023/05/24 07:16:24;;;;;;;24.70;12.02;;;26.10;62.90;;;;;;5121342;27;20043;-90
2023/05/24 07:18:51;;;;;;;16.67;8.30;;;27.20;61.10;;;;;;5138135;27;20436;-88
2023/05/24 07:21:16;;;;;;;18.15;8.90;;;27.80;58.40;;;;;;5109833;27;20039;-87
2023/05/24 07:23:42;;;;;;;21.48;8.63;;;28.30;56.90;;;;;;5121265;27;20019;-88
2023/05/24 07:26:08;;;;;;;16.15;9.27;;;28.40;56.90;;;;;;5086981;28;20030;-88
2023/05/24 07:28:36;;;;;;;14.98;9.48;;;28.40;56.00;;;;;;5119431;28;20024;-88
2023/05/24 07:31:06;;;;;;;17.17;9.15;;;28.20;56.20;;;;;;5128572;27;20021;-88
2023/05/24 07:33:34;;;;;;;13.50;8.88;;;27.70;55.80;;;;;;5118973;27;20126;-88
2023/05/24 07:36:01;;;;;;;15.63;9.02;;;27.30;56.40;;;;;;5122464;27;20062;-93
2023/05/24 07:38:28;;;;;;;14.55;7.75;;;26.90;57.10;;;;;;5105582;28;20038;-91
2023/05/24 07:40:54;;;;;;;11.95;6.95;;;26.60;58.20;;;;;;5129028;27;20063;-88
2023/05/24 07:43:20;;;;;;;13.32;7.47;;;26.20;58.10;;;;;;5128121;27;20056;-89
2023/05/24 07:45:47;;;;;;;12.25;7.15;;;25.80;58.90;;;;;;5108783;28;20065;-89
2023/05/24 07:48:13;;;;;;;;;;;25.60;59.40;;;;;;5105370;27;20022;-90
2023/05/24 07:50:39;;;;;;;10.83;6.43;;;25.60;59.70;;;;;;5117973;28;20328;-88
2023/05/24 07:53:06;;;;;;;13.68;7.20;;;25.30;59.90;;;;;;5120461;28;20032;-88
2023/05/24 07:55:32;;;;;;;8.75;6.90;;;25.00;60.90;;;;;;5111580;27;20024;-88
2023/05/24 07:57:58;;;;;;;15.17;8.13;;;25.10;61.20;;;;;;5116203;28;20031;-88
2023/05/24 08:00:24;;;;;;;19.48;8.20;;;25.10;61.10;;;;;;5092797;28;20273;-90
2023/05/24 08:02:51;;;;;;;14.60;8.77;;;25.00;61.50;;;;;;5098853;28;20077;-90
2023/05/24 08:05:17;;;;;;;16.92;8.88;;;24.70;62.20;;;;;;5098815;28;20198;-90
2023/05/24 08:07:43;;;;;;;11.82;7.82;;;24.70;62.70;;;;;;5094183;28;20531;-89
2023/05/24 08:10:12;;;;;;;14.73;8.50;;;24.60;62.10;;;;;;5083193;28;20024;-92
2023/05/24 08:12:38;;;;;;;14.27;9.00;;;24.30;63.10;;;;;;5077447;28;20032;-90
2023/05/24 08:15:06;;;;;;;27.65;10.18;;;24.30;63.90;;;;;;5107524;28;20154;-91
2023/05/24 08:17:33;;;;;;;21.77;10.52;;;24.50;63.80;;;;;;5095370;28;20147;-88
2023/05/24 08:19:59;;;;;;;13.98;7.65;;;25.10;63.30;;;;;;5089161;28;20020;-92
2023/05/24 08:22:26;;;;;;;19.42;8.80;;;26.20;61.00;;;;;;5078629;28;20079;-91
2023/05/24 08:24:52;;;;;;;19.25;7.97;;;27.30;59.20;;;;;;5082085;28;20058;-89
2023/05/24 08:27:30;;;;;;;15.43;7.85;;;28.40;56.70;;;;;;5066408;28;20048;-92
2023/05/24 08:29:55;;;;;;;15.05;8.07;;;28.50;56.10;;;;;;5077829;28;20024;-91
2023/05/24 08:32:21;;;;;;;10.57;8.15;;;28.30;55.30;;;;;;5079111;28;20028;-90
2023/05/24 08:34:48;;;;;;;15.65;8.90;;;27.70;55.80;;;;;;5113976;28;20038;-90
2023/05/24 08:37:18;;;;;;;17.27;7.87;;;26.80;56.90;;;;;;5115135;28;20030;-90
2023/05/24 08:39:44;;;;;;;20.23;8.68;;;26.10;58.40;;;;;;5127044;28;20016;-89
2023/05/24 08:42:10;;;;;;;13.90;9.40;;;25.60;59.90;;;;;;5107081;28;20055;-88
2023/05/24 08:44:52;;;;;;;19.15;8.85;;;25.40;60.70;;;;;;5123172;28;20055;-89
2023/05/24 08:47:21;;;;;;;17.05;10.00;;;25.20;61.00;;;;;;5103911;28;20045;-88
2023/05/24 08:49:47;;;;;;;13.50;8.20;;;24.90;62.10;;;;;;5104558;28;20051;-90
2023/05/24 08:52:14;;;;;;;13.13;8.13;;;24.60;61.90;;;;;;5125245;27;20069;-87
2023/05/24 08:54:41;;;;;;;16.45;8.50;;;24.20;62.50;;;;;;5137127;27;20074;-89
2023/05/24 08:57:10;;;;;;;16.20;7.85;;;23.80;63.50;;;;;;5133224;28;20104;-90
2023/05/24 08:59:39;;;;;;;20.65;8.35;;;23.40;63.80;;;;;;5099482;28;20116;-91
2023/05/24 09:02:05;;;;;;;10.18;6.72;;;22.80;65.90;;;;;;5115349;27;20023;-93
2023/05/24 09:04:34;;;;;;;11.77;6.68;;;22.60;66.10;;;;;;5098908;28;20024;-90
2023/05/24 09:07:00;;;;;;;15.00;7.35;;;22.30;66.70;;;;;;5137344;27;20008;-90
2023/05/24 09:09:28;;;;;;;11.55;7.35;;;22.20;67.50;;;;;;5132916;27;20075;-89
2023/05/24 09:12:00;;;;;;;19.02;8.15;;;22.30;67.80;;;;;;5114239;28;20019;-90
2023/05/24 09:14:26;;;;;;;7.32;5.53;;;22.80;67.60;;;;;;5106685;27;20039;-89
2023/05/24 09:16:53;;;;;;;9.85;6.40;;;23.10;64.50;;;;;;5137523;27;20023;-91
2023/05/24 09:19:19;;;;;;;12.23;6.88;;;23.10;64.60;;;;;;5114087;28;20024;-89
2023/05/24 09:21:47;;;;;;;11.90;7.63;;;23.20;64.80;;;;;;5069208;28;20033;-90
2023/05/24 09:24:13;;;;;;;19.48;7.43;;;23.80;64.50;;;;;;5093267;28;20085;-90
2023/05/24 09:26:39;;;;;;;10.45;7.03;;;24.40;64.10;;;;;;5109648;28;20024;-89
2023/05/24 09:29:08;;;;;;;9.85;6.60;;;24.70;61.70;;;;;;5105011;28;20070;-91
2023/05/24 09:31:35;;;;;;;10.38;7.20;;;24.40;62.20;;;;;;5097579;28;20023;-89
2023/05/24 09:34:02;;;;;;;10.13;6.78;;;24.50;63.20;;;;;;5089036;28;20127;-88
2023/05/24 09:36:35;;;;;;;22.00;7.70;;;24.70;61.50;;;;;;5077450;28;20444;-88
2023/05/24 09:39:08;;;;;;;24.75;8.05;;;24.60;61.90;;;;;;5074471;28;20067;-89
2023/05/24 09:41:37;;;;;;;12.35;8.82;;;24.70;62.60;;;;;;5064295;28;20045;-89
2023/05/24 09:44:04;;;;;;;14.93;6.70;;;24.90;61.50;;;;;;5074659;28;20059;-91
2023/05/24 09:46:37;;;;;;;14.63;8.07;;;24.80;60.80;;;;;;5063321;28;20052;-88
2023/05/24 09:49:05;;;;;;;13.40;7.97;;;24.30;61.70;;;;;;5080971;28;20078;-90
2023/05/24 09:51:37;;;;;;;16.42;8.30;;;24.00;62.90;;;;;;5110343;28;20036;-87
2023/05/24 09:54:04;;;;;;;12.82;7.82;;;23.80;64.00;;;;;;5127377;28;20024;-89
2023/05/24 09:56:33;;;;;;;12.13;7.65;;;24.00;63.80;;;;;;5125325;28;20072;-86
2023/05/24 09:59:06;;;;;;;16.60;12.35;;;24.00;63.80;;;;;;5127733;27;20031;-87
2023/05/24 10:01:34;;;;;;;13.65;10.73;;;24.20;64.00;;;;;;5123770;27;20030;-89
2023/05/24 10:04:01;;;;;;;14.65;8.00;;;24.90;62.80;;;;;;5147378;27;20011;-89
2023/05/24 10:06:28;;;;;;;8.73;7.38;;;25.90;60.00;;;;;;5125549;28;20035;-89
2023/05/24 10:08:55;;;;;;;18.33;8.05;;;26.50;58.80;;;;;;5115495;28;20020;-87
2023/05/24 10:11:22;;;;;;;10.13;5.78;;;27.20;57.90;;;;;;5126711;28;20100;-89
2023/05/24 10:13:49;;;;;;;10.90;5.57;;;28.40;55.70;;;;;;5048988;28;20032;-90
2023/05/24 10:16:15;;;;;;;13.33;6.40;;;28.40;52.70;;;;;;5070132;28;20047;-88
2023/05/24 10:18:43;;;;;;;14.35;7.38;;;27.50;55.00;;;;;;5075481;28;20258;-88
2023/05/24 10:21:13;;;;;;;16.63;8.15;;;27.00;56.10;;;;;;5084610;28;20033;-88
2023/05/24 10:23:44;;;;;;;12.32;7.45;;;26.80;57.30;;;;;;5068546;28;20043;-88
2023/05/24 10:26:11;;;;;;;13.23;6.95;;;26.70;56.70;;;;;;5057382;28;20045;-88
2023/05/24 10:28:47;;;;;;;9.80;6.70;;;26.50;56.60;;;;;;5053273;28;20063;-89
2023/05/24 10:31:19;;;;;;;10.25;6.03;;;26.30;56.90;;;;;;5071656;28;20048;-88
2023/05/24 10:33:47;;;;;;;12.80;6.38;;;25.90;57.80;;;;;;5063399;28;20044;-89
2023/05/24 10:36:14;;;;;;;12.90;6.30;;;25.70;58.70;;;;;;5060481;28;20033;-88
2023/05/24 10:38:40;;;;;;;;;;;25.60;58.80;;;;;;5072238;28;20017;-87
2023/05/24 10:41:09;;;;;;;11.03;6.67;;;25.20;59.20;;;;;;5103948;28;19912;-90
2023/05/24 10:43:36;;;;;;;11.75;6.25;;;25.00;60.50;;;;;;5090354;28;20040;-88
2023/05/24 10:46:04;;;;;;;9.98;5.60;;;24.90;61.10;;;;;;5103645;28;20032;-91
2023/05/24 10:48:40;;;;;;;11.52;6.00;;;24.80;60.30;;;;;;5088623;28;20028;-89
2023/05/24 10:51:39;;;;;;;10.60;5.97;;;24.40;61.20;;;;;;5097381;28;20028;-88
2023/05/24 10:54:26;;;;;;;14.20;5.70;;;24.00;62.20;;;;;;5071403;28;20304;-88
2023/05/24 10:56:52;;;;;;;10.88;6.15;;;24.00;63.10;;;;;;5091596;28;20032;-90
2023/05/24 10:59:23;;;;;;;13.13;9.00;;;24.30;62.60;;;;;;5088403;28;20442;-90
2023/05/24 11:01:57;;;;;;;12.82;6.63;;;24.60;62.30;;;;;;5066793;28;20051;-90
2023/05/24 11:04:23;;;;;;;9.68;6.45;;;24.90;61.30;;;;;;5077183;28;20040;-88
2023/05/24 11:07:00;;;;;;;8.70;6.65;;;24.90;61.50;;;;;;5093816;28;20094;-88
2023/05/24 11:09:28;;;;;;;11.23;6.03;;;25.00;61.30;;;;;;5099290;28;20028;-87
2023/05/24 11:11:58;;;;;;;9.52;6.05;;;24.80;60.40;;;;;;5097415;28;20027;-90
2023/05/24 11:14:28;;;;;;;9.30;6.65;;;24.50;62.00;;;;;;5091366;28;20420;-87
2023/05/24 11:16:54;;;;;;;13.57;7.25;;;24.40;62.80;;;;;;5080419;28;20370;-89
2023/05/24 11:19:27;;;;;;;8.93;6.32;;;24.30;63.00;;;;;;5076848;28;20549;-89
2023/05/24 11:21:58;;;;;;;17.85;9.30;;;24.20;63.50;;;;;;5081435;28;20029;-92
2023/05/24 11:24:26;;;;;;;12.48;6.63;;;24.40;63.70;;;;;;5093714;28;20024;-89
2023/05/24 11:26:52;;;;;;;13.73;6.95;;;24.50;63.00;;;;;;5092750;28;20009;-90
2023/05/24 11:29:23;;;;;;;14.53;8.10;;;24.60;62.90;;;;;;5077632;28;20025;-90
2023/05/24 11:31:54;;;;;;;18.63;7.30;;;24.60;63.30;;;;;;5064658;28;20048;-90
2023/05/24 11:34:20;;;;;;;15.88;8.77;;;24.50;63.80;;;;;;5080257;28;20035;-89
2023/05/24 11:36:47;;;;;;;11.73;7.65;;;24.60;64.00;;;;;;5078259;28;20035;-90
2023/05/24 11:39:14;;;;;;;13.02;6.93;;;24.60;64.20;;;;;;5078237;28;20112;-90
2023/05/24 11:41:40;;;;;;;17.42;8.13;;;24.50;64.40;;;;;;5081902;28;20400;-87
2023/05/24 11:44:08;;;;;;;10.63;6.68;;;24.10;64.60;;;;;;5100387;28;20063;-89
2023/05/24 11:46:35;;;;;;;14.68;7.82;;;23.80;65.00;;;;;;5101932;28;20024;-90
2023/05/24 11:49:03;;;;;;;10.55;7.60;;;23.60;66.40;;;;;;5096686;28;20040;-90
2023/05/24 11:51:31;;;;;;;13.15;8.20;;;23.70;66.50;;;;;;5078662;28;20386;-88
2023/05/24 11:53:58;;;;;;;15.27;7.93;;;23.90;66.30;;;;;;5073390;28;20040;-89
2023/05/24 11:56:26;;;;;;;12.43;7.53;;;24.20;66.50;;;;;;5091105;28;20470;-90
2023/05/24 11:59:14;;;;;;;11.80;6.78;;;24.40;65.40;;;;;;5107336;28;20047;-89
2023/05/24 12:01:40;;;;;;;13.32;7.15;;;24.60;63.70;;;;;;5115667;28;20049;-88
2023/05/24 12:04:08;;;;;;;14.18;6.97;;;24.30;63.80;;;;;;5110273;28;20028;-90
2023/05/24 12:06:43;;;;;;;13.88;6.95;;;24.20;64.70;;;;;;5078764;28;20457;-92
2023/05/24 12:09:12;;;;;;;13.35;6.93;;;24.30;64.70;;;;;;5073296;28;20112;-88
2023/05/24 12:11:40;;;;;;;15.13;9.10;;;24.30;64.70;;;;;;5080451;28;20032;-88
2023/05/24 12:14:11;;;;;;;16.23;7.95;;;24.50;64.80;;;;;;5104504;28;20031;-90
2023/05/24 12:16:37;;;;;;;19.45;8.60;;;24.40;64.40;;;;;;5084562;28;20020;-90
2023/05/24 12:19:03;;;;;;;13.93;7.40;;;24.50;64.90;;;;;;5096679;28;20064;-91
2023/05/24 12:21:31;;;;;;;12.75;8.80;;;24.60;64.50;;;;;;5063082;28;20040;-90
2023/05/24 12:24:12;;;;;;;16.48;8.35;;;24.40;64.60;;;;;;5057853;28;20032;-89
2023/05/24 12:26:42;;;;;;;10.57;8.07;;;24.20;65.40;;;;;;5064775;28;20120;-90
2023/05/24 12:29:12;;;;;;;16.90;7.65;;;24.10;66.20;;;;;;5073986;28;20017;-90
2023/05/24 12:31:48;;;;;;;19.80;9.90;;;24.00;66.10;;;;;;5060684;28;20029;-86
2023/05/24 12:34:20;;;;;;;14.70;7.75;;;24.00;66.70;;;;;;5072708;28;20024;-90
2023/05/24 12:36:46;;;;;;;17.27;8.82;;;24.10;66.50;;;;;;5052625;28;20053;-90
2023/05/24 12:39:33;;;;;;;15.43;8.00;;;24.20;66.80;;;;;;5047018;28;20017;-89
2023/05/24 12:42:02;;;;;;;12.50;7.18;;;24.20;66.00;;;;;;5048072;28;20037;-93
2023/05/24 12:44:33;;;;;;;10.10;7.50;;;24.00;66.30;;;;;;5092858;28;20049;-90